Aloha, Washington
Current Conditions -  °F | °C
As of 9:03 PM on Thursday 30 Oct 2014 (Local Time) from KHQM Reporting Station
Haze Haze  
Wind Chill: 54°   Ceiling: 9500
Heat Index: 54°   Visibility: 3mi
Dew Point: 54°   Wind: 0mph
Humidity: 100%   Direction: NA
Pressure: 29.78"   Gusts: NA
Location:  47.1899°N, 124.112°W
Report Text: KHQM 310403Z AUTO 00000KT 3SM BR SCT001 SCT065 OVC095 12/12 A2978 RMK AO2 T01220122
Loading
Personal Weather Stations






























Interactive Weather Map
Tropical Storm Tracking
New forecast layout! Learn more

10-Day Weather Forecast

Advertisements
Track Severe Weather on mobile